CheckWX is a tool to help pilots better visualize weather data.  It is not intended as a substitute for an official pre-flight weather briefing.

18:05:00 UTC

KCCR METAR
Buchanan Field Airport
Concord, California, USA
Current

12 mins ago

KCCR 241753Z VRB03KT 10SM CLR 28/12 A2995 RMK AO2 SLP128 T02830122 10283 20161 50000
Observed
Apr-24 @ 17:53 UTC
Wind
  • Variable at 3 KTS
Visibility
10 SM
Flight Rules
VFR
Cloud Levels
  • Clear skies
Temperature
28°C / 82°F
Dewpoint
12°C / 54°F
Humidity
37%
Altimeter
29.95" Hg
Pressure
1014.22 hPa
Previous

1 hour ago

KCCR 241653Z 00000KT 10SM CLR 26/12 A2995 RMK AO2 SLP129 T02560122
Observed
Apr-24 @ 16:53 UTC
Visibility
10 SM
Flight Rules
VFR
Cloud Levels
  • Clear skies
Temperature
26°C / 79°F
Dewpoint
12°C / 54°F
Humidity
42%
Altimeter
29.95" Hg
Pressure
1014.22 hPa
Previous

2 hours ago

KCCR 241553Z 00000KT 10SM CLR 23/12 A2995 RMK AO2 SLP129 T02280117
Observed
Apr-24 @ 15:53 UTC
Visibility
10 SM
Flight Rules
VFR
Cloud Levels
  • Clear skies
Temperature
23°C / 73°F
Dewpoint
12°C / 54°F
Humidity
50%
Altimeter
29.95" Hg
Pressure
1014.22 hPa